Time;durP1;ratioP1;P1;durP2;ratioP2;P2;SDS_P1;SDS_P2;PMS_P1;PMS_P2;Temp;Humidity;BMP_temperature;BMP_pressure;BME280_temperature;BME280_humidity;BME280_pressure;Samples;Min_cycle;Max_cycle;Signal;HPM_P1;HPM_P2
2023/02/28 00:01:02;;;;;;;;;;;;;;;16.27;22.89;99307.47;5066313;28;19921;-83
2023/02/28 00:03:28;;;;;;;;;;;;;;;14.96;24.53;99314.34;5070657;28;20327;-84
2023/02/28 00:05:54;;;;;;;;;;;;;;;16.39;22.65;99311.00;5068765;28;19920;-84
2023/02/28 00:08:20;;;;;;;;;;;;;;;13.45;26.58;99320.50;5066759;28;19969;-84
2023/02/28 00:10:46;;;;;;;;;;;;;;;15.01;24.66;99321.63;5065116;28;19920;-84
2023/02/28 00:13:13;;;;;;;;;;;;;;;16.84;22.37;99315.44;5070154;28;20303;-84
2023/02/28 00:15:39;;;;;;;;;;;;;;;17.52;21.06;99324.34;5068625;28;20268;-84
2023/02/28 00:18:05;;;;;;;;;;;;;;;15.57;23.39;99331.84;5069093;28;20299;-83
2023/02/28 00:20:31;;;;;;;;;;;;;;;15.79;23.39;99325.84;5048455;28;19928;-83
2023/02/28 00:22:57;;;;;;;;;;;;;;;16.76;22.24;99328.28;5061512;28;19931;-83
2023/02/28 00:25:24;;;;;;;;;;;;;;;18.47;20.18;99318.16;5058895;28;20452;-83
2023/02/28 00:27:50;;;;;;;;;;;;;;;16.53;22.37;99333.63;5052717;28;20054;-83
2023/02/28 00:30:18;;;;;;;;;;;;;;;16.79;22.00;99327.59;5070224;28;19928;-83
2023/02/28 00:32:44;;;;;;;;;;;;;;;15.75;22.80;99329.66;5067817;28;20022;-83
2023/02/28 00:35:11;;;;;;;;;;;;;;;14.11;25.13;99329.81;5066424;28;19928;-83
2023/02/28 00:37:37;;;;;;;;;;;;;;;15.82;23.15;99332.66;5050543;28;19920;-83
2023/02/28 00:40:06;;;;;;;;;;;;;;;15.03;23.52;99338.69;5060306;28;19936;-83
2023/02/28 00:42:33;;;;;;;;;;;;;;;15.82;22.39;99333.44;5062773;28;19924;-83
2023/02/28 00:45:00;;;;;;;;;;;;;;;16.96;21.25;99330.06;5070286;28;19921;-83
2023/02/28 00:47:25;;;;;;;;;;;;;;;15.53;22.92;99338.41;5067479;28;20015;-83
2023/02/28 00:49:52;;;;;;;;;;;;;;;16.15;21.98;99336.00;5072873;28;19931;-83
2023/02/28 00:52:18;;;;;;;;;;;;;;;18.05;20.30;99340.28;5049061;28;19927;-83
2023/02/28 00:54:44;;;;;;;;;;;;;;;20.05;19.32;99336.84;5070692;28;20007;-83
2023/02/28 00:57:10;;;;;;;;;;;;;;;20.62;17.65;99325.31;5054572;28;20011;-83
2023/02/28 00:59:36;;;;;;;;;;;;;;;20.47;17.35;99322.72;5071484;28;20372;-83
2023/02/28 01:02:02;;;;;;;;;;;;;;;20.42;17.84;99321.06;5069839;28;19931;-83
2023/02/28 01:04:28;;;;;;;;;;;;;;;20.28;17.66;99320.09;5070762;28;19951;-83
2023/02/28 01:06:54;;;;;;;;;;;;;;;20.81;17.87;99318.75;5074014;28;19920;-83
2023/02/28 01:09:20;;;;;;;;;;;;;;;21.39;17.37;99321.75;5073289;28;19920;-83
2023/02/28 01:11:46;;;;;;;;;;;;;;;21.58;16.74;99317.91;5068047;28;19974;-83
2023/02/28 01:14:16;;;;;;;;;;;;;;;21.51;16.80;99324.25;5066558;28;19944;-83
2023/02/28 01:16:42;;;;;;;;;;;;;;;21.54;16.76;99315.06;5074805;28;19920;-83
2023/02/28 01:19:08;;;;;;;;;;;;;;;20.97;16.80;99313.72;5067499;28;19932;-83
2023/02/28 01:21:35;;;;;;;;;;;;;;;21.45;16.96;99322.19;5068352;28;19932;-83
2023/02/28 01:24:02;;;;;;;;;;;;;;;21.79;17.19;99326.44;5073043;28;19924;-83
2023/02/28 01:26:28;;;;;;;;;;;;;;;21.73;16.42;99325.19;5074123;28;20011;-83
2023/02/28 01:28:54;;;;;;;;;;;;;;;21.48;16.45;99318.59;5073616;28;19971;-83
2023/02/28 01:31:21;;;;;;;;;;;;;;;20.84;16.85;99317.19;5051809;28;20031;-83
2023/02/28 01:33:47;;;;;;;;;;;;;;;20.86;16.79;99312.00;5075810;28;20017;-83
2023/02/28 01:36:15;;;;;;;;;;;;;;;20.85;17.80;99322.38;5057366;28;20311;-83
2023/02/28 01:38:41;;;;;;;;;;;;;;;21.33;17.30;99312.13;5073423;28;20144;-83
2023/02/28 01:41:08;;;;;;;;;;;;;;;21.35;16.43;99313.31;5072729;28;20300;-84
2023/02/28 01:43:43;;;;;;;;;;;;;;;20.85;16.63;99305.63;5070187;28;19921;-83
2023/02/28 01:46:09;;;;;;;;;;;;;;;20.35;17.09;99309.03;5072709;28;19921;-83
2023/02/28 01:48:38;;;;;;;;;;;;;;;20.44;17.01;99304.75;5074832;28;19921;-83
2023/02/28 01:51:13;;;;;;;;;;;;;;;20.17;16.84;99305.97;5053468;28;19929;-83
2023/02/28 01:53:42;;;;;;;;;;;;;;;19.56;17.52;99305.44;5067234;28;19920;-83
2023/02/28 01:56:09;;;;;;;;;;;;;;;18.50;18.47;99309.91;5070585;28;19921;-83
2023/02/28 01:58:36;;;;;;;;;;;;;;;18.85;18.13;99309.78;5056852;28;19924;-83
2023/02/28 02:01:03;;;;;;;;;;;;;;;19.67;17.44;99312.84;5069599;28;19928;-83
2023/02/28 02:03:30;;;;;;;;;;;;;;;20.09;16.83;99306.25;5074368;28;19927;-83
2023/02/28 02:05:56;;;;;;;;;;;;;;;20.38;16.67;99308.25;5072160;28;19967;-83
2023/02/28 02:08:26;;;;;;;;;;;;;;;20.62;17.33;99307.75;5072306;28;19924;-83
2023/02/28 02:10:54;;;;;;;;;;;;;;;21.01;16.86;99306.19;5072519;28;19930;-83
2023/02/28 02:13:37;;;;;;;;;;;;;;;21.19;16.30;99300.81;5058826;28;20442;-83
2023/02/28 02:16:21;;;;;;;;;;;;;;;21.23;16.26;99301.66;5074913;28;19921;-83
2023/02/28 02:19:08;;;;;;;;;;;;;;;20.63;16.39;99301.00;5065022;28;19921;-83
2023/02/28 02:21:49;;;;;;;;;;;;;;;20.21;16.96;99297.66;5030351;28;19921;-83
2023/02/28 02:24:35;;;;;;;;;;;;;;;20.44;16.48;99292.81;5069093;28;20025;-83
2023/02/28 02:27:15;;;;;;;;;;;;;;;20.76;16.32;99295.94;5072059;28;19920;-84
2023/02/28 02:29:41;;;;;;;;;;;;;;;21.06;16.51;99294.69;5050649;28;20195;-83
2023/02/28 02:32:10;;;;;;;;;;;;;;;21.34;15.74;99297.75;5048937;28;19943;-83
2023/02/28 02:34:42;;;;;;;;;;;;;;;21.27;16.48;99297.69;5064907;28;19921;-83
2023/02/28 02:37:28;;;;;;;;;;;;;;;21.43;16.44;99296.59;5074841;28;20376;-84
2023/02/28 02:40:00;;;;;;;;;;;;;;;21.11;16.03;99282.38;5068473;28;19917;-83
2023/02/28 02:42:37;;;;;;;;;;;;;;;20.84;16.27;99290.03;5074874;28;19924;-83
2023/02/28 02:45:09;;;;;;;;;;;;;;;20.99;16.74;99288.22;5068575;28;19924;-83
2023/02/28 02:47:36;;;;;;;;;;;;;;;21.14;16.56;99276.81;5074497;28;19920;-83
2023/02/28 02:50:05;;;;;;;;;;;;;;;21.18;15.91;99288.03;5058535;28;20059;-83
2023/02/28 02:52:34;;;;;;;;;;;;;;;21.06;16.17;99289.13;5056220;28;19947;-83
2023/02/28 02:55:02;;;;;;;;;;;;;;;20.99;16.29;99277.03;5050957;28;20327;-83
2023/02/28 02:57:37;;;;;;;;;;;;;;;21.07;15.92;99276.78;5072351;28;19924;-84
2023/02/28 03:00:05;;;;;;;;;;;;;;;21.09;15.91;99279.16;5066302;28;19923;-83
2023/02/28 03:02:34;;;;;;;;;;;;;;;21.10;16.09;99277.97;5069687;28;19967;-84
2023/02/28 03:05:02;;;;;;;;;;;;;;;21.05;16.18;99286.72;5067670;28;20015;-84
2023/02/28 03:07:28;;;;;;;;;;;;;;;21.11;15.93;99279.59;5072617;28;19920;-84
2023/02/28 03:09:55;;;;;;;;;;;;;;;21.08;16.40;99283.13;5049656;28;20023;-85
2023/02/28 03:12:24;;;;;;;;;;;;;;;21.09;15.94;99282.78;5067382;28;19931;-85
2023/02/28 03:15:11;;;;;;;;;;;;;;;21.16;16.61;99277.25;5068988;28;19920;-85
2023/02/28 03:18:00;;;;;;;;;;;;;;;20.99;16.19;99277.84;5049127;28;20396;-85
2023/02/28 03:20:45;;;;;;;;;;;;;;;20.62;16.46;99285.44;5059340;28;19963;-85
2023/02/28 03:23:19;;;;;;;;;;;;;;;20.53;16.52;99290.50;5062414;28;19966;-85
2023/02/28 03:25:54;;;;;;;;;;;;;;;20.58;16.26;99290.19;5074415;28;20379;-85
2023/02/28 03:28:26;;;;;;;;;;;;;;;20.75;16.43;99283.97;5066623;28;19987;-84
2023/02/28 03:30:53;;;;;;;;;;;;;;;20.76;16.41;99293.97;5062934;28;19932;-84
2023/02/28 03:33:19;;;;;;;;;;;;;;;20.84;16.19;99294.84;5070043;28;20272;-84
2023/02/28 03:36:00;;;;;;;;;;;;;;;20.84;15.64;99292.84;5067015;28;19932;-84
2023/02/28 03:38:40;;;;;;;;;;;;;;;20.36;16.84;99303.06;5070149;28;20015;-84
2023/02/28 03:41:24;;;;;;;;;;;;;;;20.60;16.29;99308.16;5073168;28;19974;-84
2023/02/28 03:43:56;;;;;;;;;;;;;;;20.78;16.05;99302.75;5058661;28;19924;-84
2023/02/28 03:46:24;;;;;;;;;;;;;;;20.49;16.09;99310.00;5072506;28;20084;-84
2023/02/28 03:48:57;;;;;;;;;;;;;;;20.49;16.16;99312.00;5065888;28;19928;-84
2023/02/28 03:51:24;;;;;;;;;;;;;;;20.62;15.94;99313.34;5068993;28;19944;-85
2023/02/28 03:53:56;;;;;;;;;;;;;;;20.70;15.93;99312.22;5068078;28;19928;-85
2023/02/28 03:56:24;;;;;;;;;;;;;;;20.55;15.94;99319.66;5063232;28;19939;-84
2023/02/28 03:58:50;;;;;;;;;;;;;;;20.31;16.41;99322.91;5072273;28;19972;-85
2023/02/28 04:01:26;;;;;;;;;;;;;;;20.49;16.66;99318.34;5072478;28;20292;-84
2023/02/28 04:03:52;;;;;;;;;;;;;;;20.52;15.92;99314.00;5063010;28;19920;-84
2023/02/28 04:06:20;;;;;;;;;;;;;;;20.42;16.54;99318.28;5071280;28;20023;-84
2023/02/28 04:08:46;;;;;;;;;;;;;;;20.43;16.39;99322.69;5071080;28;19920;-84
2023/02/28 04:11:18;;;;;;;;;;;;;;;20.53;16.40;99322.00;5071398;28;19963;-84
2023/02/28 04:13:44;;;;;;;;;;;;;;;19.83;16.35;99330.19;5070502;28;20434;-84
2023/02/28 04:16:11;;;;;;;;;;;;;;;19.85;16.68;99322.25;5070334;28;19959;-85
2023/02/28 04:18:38;;;;;;;;;;;;;;;20.12;16.54;99331.38;5069084;28;19920;-84
2023/02/28 04:21:05;;;;;;;;;;;;;;;20.28;16.16;99329.25;5071138;28;19935;-84
2023/02/28 04:23:31;;;;;;;;;;;;;;;19.69;16.16;99327.19;5062828;28;19924;-84
2023/02/28 04:25:57;;;;;;;;;;;;;;;19.81;16.25;99326.94;5068993;28;19932;-83
2023/02/28 04:28:23;;;;;;;;;;;;;;;19.76;16.62;99329.28;5067537;28;19925;-83
2023/02/28 04:30:56;;;;;;;;;;;;;;;19.60;16.22;99335.00;5064565;28;19929;-83
2023/02/28 04:33:21;;;;;;;;;;;;;;;19.57;17.05;99329.34;5071107;28;19931;-83
2023/02/28 04:35:47;;;;;;;;;;;;;;;19.85;16.80;99332.59;5070711;28;19920;-83
2023/02/28 04:38:14;;;;;;;;;;;;;;;20.08;16.77;99341.69;5072730;28;19927;-83
2023/02/28 04:40:40;;;;;;;;;;;;;;;20.16;15.90;99337.03;5063402;28;19921;-82
2023/02/28 04:43:06;;;;;;;;;;;;;;;19.51;16.29;99336.44;5068087;28;20003;-82
2023/02/28 04:45:33;;;;;;;;;;;;;;;19.32;16.72;99345.63;5068228;28;19929;-84
2023/02/28 04:47:59;;;;;;;;;;;;;;;19.53;16.84;99339.66;5069200;28;19991;-84
2023/02/28 04:50:25;;;;;;;;;;;;;;;19.46;16.56;99348.69;5060168;28;20421;-84
2023/02/28 04:52:51;;;;;;;;;;;;;;;19.18;16.63;99346.16;5067673;28;20395;-83
2023/02/28 04:55:17;;;;;;;;;;;;;;;19.40;16.95;99339.03;5058830;28;19963;-83
2023/02/28 04:57:43;;;;;;;;;;;;;;;19.57;16.60;99341.31;5061055;28;20011;-83
2023/02/28 05:00:11;;;;;;;;;;;;;;;19.69;16.22;99334.72;5069664;28;20388;-84
2023/02/28 05:02:38;;;;;;;;;;;;;;;19.38;16.24;99343.34;5072728;28;20013;-85
2023/02/28 05:05:04;;;;;;;;;;;;;;;19.25;16.79;99337.94;5070684;28;20348;-85
2023/02/28 05:07:30;;;;;;;;;;;;;;;19.44;16.59;99341.88;5050325;28;20315;-83
2023/02/28 05:09:56;;;;;;;;;;;;;;;19.56;16.13;99336.91;5066175;28;19928;-85
2023/02/28 05:12:22;;;;;;;;;;;;;;;19.20;16.37;99343.84;5057421;28;19928;-87
2023/02/28 05:14:48;;;;;;;;;;;;;;;19.17;16.47;99346.56;5064535;28;20027;-86
2023/02/28 05:17:14;;;;;;;;;;;;;;;19.10;16.67;99346.41;5064233;28;20015;-86
2023/02/28 05:19:40;;;;;;;;;;;;;;;19.42;16.37;99338.69;5070096;28;19924;-86
2023/02/28 05:22:12;;;;;;;;;;;;;;;19.44;16.11;99350.25;5067955;28;19983;-85
2023/02/28 05:24:38;;;;;;;;;;;;;;;19.45;16.71;99344.28;5057189;28;19925;-83
2023/02/28 05:27:04;;;;;;;;;;;;;;;19.48;16.50;99353.88;5065192;28;19921;-85
2023/02/28 05:29:30;;;;;;;;;;;;;;;19.59;16.56;99360.44;5066438;28;19967;-84
2023/02/28 05:31:56;;;;;;;;;;;;;;;19.83;16.68;99354.47;5073743;28;19959;-86
2023/02/28 05:34:22;;;;;;;;;;;;;;;20.00;16.28;99363.09;5058068;28;19928;-87
2023/02/28 05:36:48;;;;;;;;;;;;;;;19.63;16.43;99355.72;5071061;28;19920;-85
2023/02/28 05:39:14;;;;;;;;;;;;;;;19.48;16.70;99371.41;5063252;28;20382;-85
2023/02/28 05:41:41;;;;;;;;;;;;;;;19.53;16.36;99378.66;5073180;28;19920;-88
2023/02/28 05:44:07;;;;;;;;;;;;;;;19.27;16.54;99373.78;5066035;28;19924;-89
2023/02/28 05:46:33;;;;;;;;;;;;;;;19.25;16.77;99378.94;5071847;28;19956;-88
2023/02/28 05:49:00;;;;;;;;;;;;;;;19.38;16.91;99379.56;5071318;28;19977;-88
2023/02/28 05:51:26;;;;;;;;;;;;;;;19.69;16.61;99377.34;5069196;28;19928;-87
2023/02/28 05:53:52;;;;;;;;;;;;;;;19.50;16.62;99374.63;5075702;28;20323;-88
2023/02/28 05:56:18;;;;;;;;;;;;;;;19.61;16.64;99381.16;5076076;28;20335;-87
2023/02/28 05:58:44;;;;;;;;;;;;;;;19.71;16.64;99380.56;5076270;28;19920;-89
2023/02/28 06:01:21;;;;;;;;;;;;;;;19.79;16.17;99385.03;5072486;28;20296;-89
2023/02/28 06:03:48;;;;;;;;;;;;;;;19.81;16.38;99385.47;5043932;28;19921;-87
2023/02/28 06:06:14;;;;;;;;;;;;;;;19.98;16.48;99386.94;5073379;28;20360;-88
2023/02/28 06:08:40;;;;;;;;;;;;;;;20.02;16.08;99394.16;5056970;28;19921;-89
2023/02/28 06:11:06;;;;;;;;;;;;;;;20.04;16.54;99393.00;5074988;28;19927;-88
2023/02/28 06:13:32;;;;;;;;;;;;;;;20.15;16.43;99394.78;5062411;28;19943;-90
2023/02/28 06:16:04;;;;;;;;;;;;;;;20.10;16.50;99395.09;5071275;28;19925;-88
2023/02/28 06:18:30;;;;;;;;;;;;;;;19.98;16.57;99401.69;5075851;28;21540;-89
2023/02/28 06:20:56;;;;;;;;;;;;;;;19.93;16.65;99410.34;5075398;28;19929;-86
2023/02/28 06:23:22;;;;;;;;;;;;;;;19.80;16.65;99411.75;5066983;28;19927;-88
2023/02/28 06:25:49;;;;;;;;;;;;;;;20.06;17.09;99412.94;5079003;28;20757;-89
2023/02/28 06:28:15;;;;;;;;;;;;;;;20.02;16.99;99413.69;5074582;28;19979;-89
2023/02/28 06:30:41;;;;;;;;;;;;;;;20.30;16.24;99409.75;5073741;28;19978;-88
2023/02/28 06:33:07;;;;;;;;;;;;;;;20.22;16.49;99406.06;5073462;28;20015;-87
2023/02/28 06:35:33;;;;;;;;;;;;;;;20.34;16.74;99408.63;5075203;28;19951;-87
2023/02/28 06:38:00;;;;;;;;;;;;;;;20.53;16.31;99411.28;5072197;28;19966;-88
2023/02/28 06:40:26;;;;;;;;;;;;;;;20.50;16.36;99414.03;5068546;28;19921;-89
2023/02/28 06:42:52;;;;;;;;;;;;;;;20.52;16.28;99417.25;5072444;28;19924;-89
2023/02/28 06:45:18;;;;;;;;;;;;;;;20.41;17.05;99414.31;5052701;28;20427;-86
2023/02/28 06:47:44;;;;;;;;;;;;;;;20.74;16.87;99410.78;5071288;28;19943;-90
2023/02/28 06:50:11;;;;;;;;;;;;;;;20.68;16.68;99407.50;5053544;28;19999;-91
2023/02/28 06:52:38;;;;;;;;;;;;;;;20.83;17.04;99413.25;5055704;28;20301;-86
2023/02/28 06:55:05;;;;;;;;;;;;;;;20.97;16.78;99413.44;5072381;28;19925;-88
2023/02/28 06:57:32;;;;;;;;;;;;;;;20.52;17.18;99425.59;5073217;28;19924;-88
2023/02/28 06:59:59;;;;;;;;;;;;;;;20.24;17.46;99427.97;5053978;28;19939;-88
2023/02/28 07:02:26;;;;;;;;;;;;;;;20.18;17.89;99421.09;5073557;28;19924;-87
2023/02/28 07:04:52;;;;;;;;;;;;;;;20.17;17.98;99430.63;5068130;28;19924;-88
2023/02/28 07:07:18;;;;;;;;;;;;;;;20.23;17.97;99431.97;5070131;28;19975;-88
2023/02/28 07:09:44;;;;;;;;;;;;;;;20.40;17.83;99428.63;5071568;28;19924;-87
2023/02/28 07:12:10;;;;;;;;;;;;;;;20.34;17.81;99441.28;5072357;28;19928;-87
2023/02/28 07:14:37;;;;;;;;;;;;;;;18.59;19.25;99444.00;5055553;28;19916;-87
2023/02/28 07:17:03;;;;;;;;;;;;;;;18.45;19.27;99437.28;5064772;28;19921;-87
2023/02/28 07:19:29;;;;;;;;;;;;;;;19.48;19.03;99437.44;5070382;28;20457;-86
2023/02/28 07:21:55;;;;;;;;;;;;;;;19.54;19.05;99438.75;5054139;28;19982;-87
2023/02/28 07:24:23;;;;;;;;;;;;;;;19.93;18.84;99443.81;5053808;28;19956;-86
2023/02/28 07:26:49;;;;;;;;;;;;;;;20.35;18.81;99454.06;5071951;28;19947;-86
2023/02/28 07:29:15;;;;;;;;;;;;;;;20.62;18.64;99439.72;5071633;28;19921;-85
2023/02/28 07:31:44;;;;;;;;;;;;;;;20.78;18.07;99441.50;5041078;28;19986;-86
2023/02/28 07:34:10;;;;;;;;;;;;;;;20.76;18.72;99449.44;5063303;28;19962;-86
2023/02/28 07:36:36;;;;;;;;;;;;;;;21.22;18.50;99437.69;5054420;28;19925;-86
2023/02/28 07:39:02;;;;;;;;;;;;;;;21.10;17.95;99439.94;5073648;28;20028;-86
2023/02/28 07:41:33;;;;;;;;;;;;;;;21.39;18.66;99443.84;5071615;28;19921;-87
2023/02/28 07:43:59;;;;;;;;;;;;;;;20.25;18.84;99455.50;5072939;28;19917;-86
2023/02/28 07:46:26;;;;;;;;;;;;;;;20.43;18.47;99451.00;5069269;28;20468;-87
2023/02/28 07:48:54;;;;;;;;;;;;;;;21.31;19.33;99435.41;5069917;28;19994;-87
2023/02/28 07:51:20;;;;;;;;;;;;;;;21.35;17.88;99441.81;5070404;28;20219;-87
2023/02/28 07:53:46;;;;;;;;;;;;;;;19.90;19.29;99452.94;5068174;28;19917;-87
2023/02/28 07:56:12;;;;;;;;;;;;;;;20.34;19.59;99452.44;5074666;28;20359;-86
2023/02/28 07:58:38;;;;;;;;;;;;;;;20.68;18.91;99452.16;5069496;28;19921;-86
2023/02/28 08:01:06;;;;;;;;;;;;;;;20.64;18.64;99450.50;5072280;28;19912;-87
2023/02/28 08:03:32;;;;;;;;;;;;;;;20.76;18.90;99444.69;5072188;28;19920;-87
2023/02/28 08:05:58;;;;;;;;;;;;;;;20.47;19.04;99449.06;5049452;28;19925;-86
2023/02/28 08:08:31;;;;;;;;;;;;;;;17.20;21.67;99451.16;5053747;28;19931;-87
2023/02/28 08:11:01;;;;;;;;;;;;;;;19.72;19.28;99449.03;5070620;28;20355;-86
2023/02/28 08:13:27;;;;;;;;;;;;;;;19.93;19.80;99443.81;5066436;28;19916;-87
2023/02/28 08:15:54;;;;;;;;;;;;;;;20.47;19.29;99451.03;5069862;28;20380;-86
2023/02/28 08:18:21;;;;;;;;;;;;;;;19.61;19.63;99455.59;5070416;28;19925;-86
2023/02/28 08:20:47;;;;;;;;;;;;;;;19.35;19.29;99452.69;5069010;28;20356;-86
2023/02/28 08:23:13;;;;;;;;;;;;;;;20.30;19.16;99454.38;5069058;28;19917;-86
2023/02/28 08:25:39;;;;;;;;;;;;;;;17.40;22.28;99443.78;5067199;28;19921;-86
2023/02/28 08:28:05;;;;;;;;;;;;;;;17.35;22.54;99457.91;5071838;28;20310;-86
2023/02/28 08:30:31;;;;;;;;;;;;;;;18.32;22.30;99453.25;5072552;28;19917;-86
2023/02/28 08:32:57;;;;;;;;;;;;;;;18.39;22.10;99449.88;5057137;28;20050;-86
2023/02/28 08:35:23;;;;;;;;;;;;;;;14.07;25.54;99460.59;5066865;28;20011;-86
2023/02/28 08:37:50;;;;;;;;;;;;;;;12.61;28.71;99471.19;5073285;28;19921;-87
2023/02/28 08:40:18;;;;;;;;;;;;;;;12.94;27.21;99459.34;5062370;28;20062;-86
2023/02/28 08:42:45;;;;;;;;;;;;;;;13.53;27.67;99460.38;5066475;28;19959;-86
2023/02/28 08:45:11;;;;;;;;;;;;;;;17.08;22.65;99451.25;5043647;28;19920;-86
2023/02/28 08:47:37;;;;;;;;;;;;;;;18.69;20.62;99447.38;5051465;28;20009;-86
2023/02/28 08:50:04;;;;;;;;;;;;;;;17.41;21.62;99446.19;5069519;28;19920;-85
2023/02/28 08:52:32;;;;;;;;;;;;;;;17.26;21.76;99447.00;5063835;28;20395;-86
2023/02/28 08:54:58;;;;;;;;;;;;;;;15.38;23.73;99458.06;5067072;28;19963;-86
2023/02/28 08:57:27;;;;;;;;;;;;;;;14.43;25.11;99447.06;5066633;28;19936;-86
2023/02/28 08:59:53;;;;;;;;;;;;;;;16.23;22.27;99454.22;5060234;28;20366;-86
2023/02/28 09:02:19;;;;;;;;;;;;;;;17.29;21.04;99449.84;5076789;28;19920;-86
2023/02/28 09:04:45;;;;;;;;;;;;;;;17.72;21.10;99446.25;5091946;28;20008;-85
2023/02/28 09:07:12;;;;;;;;;;;;;;;14.82;24.11;99452.09;5082866;28;19948;-87
2023/02/28 09:09:53;;;;;;;;;;;;;;;14.87;24.17;99457.44;5076114;28;19986;-86
2023/02/28 09:12:25;;;;;;;;;;;;;;;15.19;23.78;99455.84;5086887;28;20447;-85
2023/02/28 09:14:52;;;;;;;;;;;;;;;16.85;21.91;99445.44;5068951;28;20340;-84
2023/02/28 09:17:19;;;;;;;;;;;;;;;18.21;20.41;99438.31;5069869;28;20023;-85
2023/02/28 09:19:47;;;;;;;;;;;;;;;17.66;20.05;99441.34;5081342;28;20002;-85
2023/02/28 09:22:13;;;;;;;;;;;;;;;19.07;19.77;99441.78;5079492;28;19921;-84
2023/02/28 09:24:39;;;;;;;;;;;;;;;14.76;24.39;99456.22;5073116;28;19916;-84
2023/02/28 09:27:05;;;;;;;;;;;;;;;13.61;25.40;99458.69;5072718;28;19927;-85
2023/02/28 09:29:32;;;;;;;;;;;;;;;13.65;26.86;99451.41;5076208;28;19974;-84
2023/02/28 09:31:58;;;;;;;;;;;;;;;11.97;27.58;99454.41;5074115;28;20003;-84
2023/02/28 09:34:25;;;;;;;;;;;;;;;11.91;29.24;99463.13;5076432;28;19913;-85
2023/02/28 09:36:54;;;;;;;;;;;;;;;12.47;29.50;99461.13;5076685;28;19920;-87
2023/02/28 09:39:21;;;;;;;;;;;;;;;11.43;29.71;99460.34;5076351;28;19924;-87
2023/02/28 09:41:50;;;;;;;;;;;;;;;12.52;28.96;99454.66;5074049;28;19924;-85
2023/02/28 09:44:36;;;;;;;;;;;;;;;11.28;29.92;99463.47;5047774;28;19925;-86
2023/02/28 09:47:21;;;;;;;;;;;;;;;14.97;24.72;99453.44;5052320;28;19927;-84
2023/02/28 09:49:48;;;;;;;;;;;;;;;17.79;21.48;99443.66;5065072;28;20288;-84
2023/02/28 09:52:19;;;;;;;;;;;;;;;17.55;20.22;99443.81;5056511;28;19917;-85
2023/02/28 09:54:45;;;;;;;;;;;;;;;17.34;21.65;99445.22;5075348;28;19921;-84
2023/02/28 09:57:39;;;;;;;;;;;;;;;18.73;20.01;99440.72;5075677;28;20499;-84
2023/02/28 10:00:07;;;;;;;;;;;;;;;18.63;19.23;99442.09;5067713;28;20009;-83
2023/02/28 10:02:36;;;;;;;;;;;;;;;19.02;19.38;99431.75;5074664;28;19927;-84
2023/02/28 10:05:11;;;;;;;;;;;;;;;14.14;25.81;99452.59;5075779;28;19973;-84
2023/02/28 10:07:40;;;;;;;;;;;;;;;15.50;23.96;99450.63;5075418;28;19920;-84
2023/02/28 10:10:17;;;;;;;;;;;;;;;17.28;20.84;99448.25;5075229;28;19974;-84
2023/02/28 10:12:44;;;;;;;;;;;;;;;14.98;24.94;99444.78;5069834;28;19928;-86
2023/02/28 10:15:14;;;;;;;;;;;;;;;15.38;24.06;99447.00;5073096;28;20415;-84
2023/02/28 10:17:42;;;;;;;;;;;;;;;15.37;24.02;99448.97;5075106;28;19920;-84
2023/02/28 10:20:10;;;;;;;;;;;;;;;17.46;21.28;99437.59;5062824;28;20345;-83
2023/02/28 10:22:52;;;;;;;;;;;;;;;14.97;24.58;99440.44;5071058;28;19955;-84
2023/02/28 10:25:24;;;;;;;;;;;;;;;13.39;26.25;99450.69;5061709;28;19960;-84
2023/02/28 10:27:53;;;;;;;;;;;;;;;14.17;24.91;99446.41;5072831;28;19920;-84
2023/02/28 10:30:19;;;;;;;;;;;;;;;13.70;26.06;99449.25;5071542;28;19926;-83
2023/02/28 10:32:48;;;;;;;;;;;;;;;10.84;29.39;99456.91;5069240;28;19920;-85
2023/02/28 10:35:17;;;;;;;;;;;;;;;11.24;30.27;99449.56;5049021;28;19944;-84
2023/02/28 10:38:03;;;;;;;;;;;;;;;11.28;30.45;99452.47;5074641;28;20018;-85
2023/02/28 10:40:32;;;;;;;;;;;;;;;15.04;23.92;99439.88;5069258;28;20354;-84
2023/02/28 10:43:00;;;;;;;;;;;;;;;13.92;25.38;99439.91;5071919;28;19959;-84
2023/02/28 10:45:28;;;;;;;;;;;;;;;12.16;27.99;99443.13;5074575;28;20681;-84
2023/02/28 10:47:55;;;;;;;;;;;;;;;13.53;25.77;99430.03;5072125;28;19973;-84
2023/02/28 10:50:29;;;;;;;;;;;;;;;16.17;24.01;99432.66;5071535;28;19935;-84
2023/02/28 10:53:05;;;;;;;;;;;;;;;13.77;26.68;99429.41;5069886;28;20455;-85
2023/02/28 10:55:31;;;;;;;;;;;;;;;14.24;23.33;99430.09;5069887;28;19974;-83
2023/02/28 10:57:57;;;;;;;;;;;;;;;14.46;25.37;99416.81;5071742;28;19928;-83
2023/02/28 11:00:27;;;;;;;;;;;;;;;17.03;21.52;99412.66;5073071;28;19947;-84
2023/02/28 11:02:53;;;;;;;;;;;;;;;18.11;21.22;99399.19;5053667;28;20011;-84
2023/02/28 11:05:31;;;;;;;;;;;;;;;18.84;20.73;99399.19;5070054;28;19920;-87
2023/02/28 11:08:04;;;;;;;;;;;;;;;19.08;20.98;99404.44;5052791;28;20022;-87
2023/02/28 11:10:34;;;;;;;;;;;;;;;16.61;22.35;99403.13;5069331;28;19936;-88
2023/02/28 11:13:01;;;;;;;;;;;;;;;17.99;20.76;99396.50;5070913;28;20081;-89
2023/02/28 11:15:28;;;;;;;;;;;;;;;17.55;21.04;99391.06;5072531;28;19920;-87
2023/02/28 11:18:00;;;;;;;;;;;;;;;18.21;20.42;99393.03;5071008;28;19935;-88
2023/02/28 11:20:28;;;;;;;;;;;;;;;14.24;26.47;99395.00;5063986;28;19917;-89
2023/02/28 11:22:55;;;;;;;;;;;;;;;14.53;26.48;99397.75;5061022;28;19931;-85
2023/02/28 11:25:26;;;;;;;;;;;;;;;14.52;25.88;99395.31;5051072;28;19946;-88
2023/02/28 11:28:01;;;;;;;;;;;;;;;18.54;21.14;99377.53;5069569;28;19929;-87
2023/02/28 11:30:30;;;;;;;;;;;;;;;19.22;19.56;99369.34;5066307;28;19920;-87
2023/02/28 11:32:56;;;;;;;;;;;;;;;20.37;19.52;99373.59;5055062;28;20384;-88
2023/02/28 11:35:36;;;;;;;;;;;;;;;21.25;18.15;99361.53;5075661;28;19924;-85
2023/02/28 11:38:02;;;;;;;;;;;;;;;16.22;23.25;99385.31;5071019;28;19925;-87
2023/02/28 11:40:35;;;;;;;;;;;;;;;15.43;24.62;99378.41;5067350;28;19928;-88
2023/02/28 11:43:09;;;;;;;;;;;;;;;16.25;23.72;99367.97;5069724;28;19964;-85
2023/02/28 11:45:54;;;;;;;;;;;;;;;16.17;24.09;99366.16;5071202;28;19920;-86
2023/02/28 11:48:23;;;;;;;;;;;;;;;19.36;19.57;99356.84;5070781;28;19926;-87
2023/02/28 11:50:57;;;;;;;;;;;;;;;17.40;22.27;99366.06;5070012;28;19927;-85
2023/02/28 11:53:42;;;;;;;;;;;;;;;15.28;26.48;99368.00;5069420;28;20272;-88
2023/02/28 11:56:13;;;;;;;;;;;;;;;18.29;21.41;99359.50;5070099;28;19974;-84
2023/02/28 11:58:46;;;;;;;;;;;;;;;19.35;20.44;99356.00;5070116;28;19920;-84
2023/02/28 12:01:22;;;;;;;;;;;;;;;20.79;18.03;99357.41;5069366;28;19936;-84
2023/02/28 12:03:54;;;;;;;;;;;;;;;21.22;18.30;99341.91;5071068;28;19920;-84
2023/02/28 12:06:30;;;;;;;;;;;;;;;19.37;20.70;99359.25;5069566;28;19927;-84
2023/02/28 12:09:15;;;;;;;;;;;;;;;19.86;19.60;99350.94;5071055;28;19929;-84
2023/02/28 12:11:53;;;;;;;;;;;;;;;18.90;20.88;99350.44;5068489;28;19951;-85
2023/02/28 12:14:28;;;;;;;;;;;;;;;17.76;24.21;99355.47;5066116;28;19929;-85
2023/02/28 12:17:13;;;;;;;;;;;;;;;17.31;24.57;99354.31;5070854;28;19928;-83
2023/02/28 12:19:52;;;;;;;;;;;;;;;13.62;26.16;99359.06;5071277;28;19923;-83
2023/02/28 12:22:24;;;;;;;;;;;;;;;12.32;29.72;99356.97;5069218;28;19920;-84
2023/02/28 12:25:05;;;;;;;;;;;;;;;13.18;28.49;99370.63;5068009;28;20392;-83
2023/02/28 12:27:38;;;;;;;;;;;;;;;12.70;29.98;99365.34;5063237;28;19967;-84
2023/02/28 12:30:04;;;;;;;;;;;;;;;12.38;30.29;99371.38;5066612;28;19936;-83
2023/02/28 12:32:37;;;;;;;;;;;;;;;14.00;27.80;99367.25;5052555;28;19925;-84
2023/02/28 12:35:12;;;;;;;;;;;;;;;17.58;22.45;99353.44;5065210;28;19925;-83
2023/02/28 12:37:42;;;;;;;;;;;;;;;20.75;20.56;99341.81;5067928;28;19925;-83
2023/02/28 12:40:17;;;;;;;;;;;;;;;21.58;19.21;99343.06;5064996;28;19925;-83
2023/02/28 12:42:51;;;;;;;;;;;;;;;22.11;18.31;99344.25;5052699;28;19927;-83
2023/02/28 12:45:19;;;;;;;;;;;;;;;17.93;23.88;99349.53;5063849;28;19970;-83
2023/02/28 12:47:48;;;;;;;;;;;;;;;19.51;20.64;99356.72;5071657;28;19923;-83
2023/02/28 12:50:15;;;;;;;;;;;;;;;16.18;25.60;99353.91;5072066;28;19974;-84
2023/02/28 12:52:51;;;;;;;;;;;;;;;15.58;25.79;99360.34;5069712;28;19924;-84
2023/02/28 12:55:25;;;;;;;;;;;;;;;15.27;27.16;99360.03;5068281;28;19924;-84
2023/02/28 12:58:10;;;;;;;;;;;;;;;15.36;26.47;99367.09;5070349;28;19954;-84